To NAV CANADA Home Page Login to a new session Search on AWWS site Disclaimer Vers la page française équivalente Tips FAQ What's new on the site To the Forecasts and Observations / NOTAM section To "File a Flight Plan" website Publications and other links Update of the User's profile FIC Telephone Numbers My Weather Data Folder Route Weather Data Regional Weather Data Local Weather Data To the Forecasts and Observations / NOTAM section
Request Generated 11/13/2018 at 18:03:35 UTC . Weather information available at that time is displayed.

METAR/TAF

ST. ANTHONY/NL    (show WxCam)

METAR CYAY 131800Z AUTO 26013KT 9SM CLR M00/M05 A3006 RMK ICG SLP184=
METAR CYAY 131700Z AUTO 25014KT 9SM CLR M00/M05 A3005 RMK ICG SLP180=
METAR CYAY 131600Z AUTO 29010KT 9SM FEW023 M01/M05 A3003 RMK ICG INTMT SLP173=

TAF CYAY 131338Z 1314/1402 29012G22KT P6SM FEW025
FM131800 25010G20KT P6SM SCT020 TEMPO 1318/1322 BKN020
FM132200 24006KT P6SM BKN020
BECMG 1400/1402 12005KT
RMK FCST BASED ON AUTO OBS. NXT FCST BY 132000Z=
Your time UTC time
Weather data provided by Environment Canada and NAV CANADA